sensor_id;sensor_type;location;lat;lon;timestamp;pressure;altitude;pressure_sealevel;temperature
67599;BMP280;62026;39.230;9.122;2023-04-24T00:00:57;100829.56;;;17.09
67599;BMP280;62026;39.230;9.122;2023-04-24T00:03:25;100837.03;;;17.07
67599;BMP280;62026;39.230;9.122;2023-04-24T00:05:54;100848.25;;;17.09
67599;BMP280;62026;39.230;9.122;2023-04-24T00:08:20;100840.50;;;17.08
67599;BMP280;62026;39.230;9.122;2023-04-24T00:10:48;100843.16;;;17.08
67599;BMP280;62026;39.230;9.122;2023-04-24T00:13:14;100843.16;;;17.08
67599;BMP280;62026;39.230;9.122;2023-04-24T00:15:40;100845.56;;;17.09
67599;BMP280;62026;39.230;9.122;2023-04-24T00:18:06;100846.88;;;17.07
67599;BMP280;62026;39.230;9.122;2023-04-24T00:20:32;100846.63;;;17.08
67599;BMP280;62026;39.230;9.122;2023-04-24T00:22:59;100841.53;;;17.07
67599;BMP280;62026;39.230;9.122;2023-04-24T00:25:25;100839.44;;;17.09
67599;BMP280;62026;39.230;9.122;2023-04-24T00:27:51;100840.97;;;17.05
67599;BMP280;62026;39.230;9.122;2023-04-24T00:30:17;100838.56;;;17.03
67599;BMP280;62026;39.230;9.122;2023-04-24T00:32:43;100830.56;;;17.03
67599;BMP280;62026;39.230;9.122;2023-04-24T00:35:09;100827.66;;;17.05
67599;BMP280;62026;39.230;9.122;2023-04-24T00:37:36;100832.13;;;16.99
67599;BMP280;62026;39.230;9.122;2023-04-24T00:40:02;100829.47;;;16.99
67599;BMP280;62026;39.230;9.122;2023-04-24T00:42:28;100835.91;;;17.03
67599;BMP280;62026;39.230;9.122;2023-04-24T00:44:56;100832.13;;;16.99
67599;BMP280;62026;39.230;9.122;2023-04-24T00:47:25;100829.94;;;16.96
67599;BMP280;62026;39.230;9.122;2023-04-24T00:49:51;100831.53;;;16.97
67599;BMP280;62026;39.230;9.122;2023-04-24T00:52:18;100839.03;;;16.95
67599;BMP280;62026;39.230;9.122;2023-04-24T00:54:44;100837.91;;;16.91
67599;BMP280;62026;39.230;9.122;2023-04-24T00:57:12;100836.28;;;16.90
67599;BMP280;62026;39.230;9.122;2023-04-24T00:59:39;100833.88;;;16.89
67599;BMP280;62026;39.230;9.122;2023-04-24T01:02:09;100834.09;;;16.87
67599;BMP280;62026;39.230;9.122;2023-04-24T01:04:35;100845.34;;;16.89
67599;BMP280;62026;39.230;9.122;2023-04-24T01:07:02;100849.06;;;16.88
67599;BMP280;62026;39.230;9.122;2023-04-24T01:09:29;100845.28;;;16.84
67599;BMP280;62026;39.230;9.122;2023-04-24T01:11:57;100850.84;;;16.82
67599;BMP280;62026;39.230;9.122;2023-04-24T01:14:24;100850.56;;;16.79
67599;BMP280;62026;39.230;9.122;2023-04-24T01:16:50;100847.38;;;16.82
67599;BMP280;62026;39.230;9.122;2023-04-24T01:19:18;100855.06;;;16.78
67599;BMP280;62026;39.230;9.122;2023-04-24T01:21:47;100841.22;;;16.81
67599;BMP280;62026;39.230;9.122;2023-04-24T01:24:13;100847.88;;;16.79
67599;BMP280;62026;39.230;9.122;2023-04-24T01:26:39;100846.28;;;16.78
67599;BMP280;62026;39.230;9.122;2023-04-24T01:29:05;100846.19;;;16.73
67599;BMP280;62026;39.230;9.122;2023-04-24T01:31:32;100841.69;;;16.73
67599;BMP280;62026;39.230;9.122;2023-04-24T01:33:59;100839.25;;;16.72
67599;BMP280;62026;39.230;9.122;2023-04-24T01:36:28;100835.53;;;16.73
67599;BMP280;62026;39.230;9.122;2023-04-24T01:38:55;100842.97;;;16.71
67599;BMP280;62026;39.230;9.122;2023-04-24T01:41:22;100831.53;;;16.70
67599;BMP280;62026;39.230;9.122;2023-04-24T01:43:48;100834.91;;;16.66
67599;BMP280;62026;39.230;9.122;2023-04-24T01:46:15;100831.69;;;16.64
67599;BMP280;62026;39.230;9.122;2023-04-24T01:48:41;100838.31;;;16.61
67599;BMP280;62026;39.230;9.122;2023-04-24T01:51:07;100837.03;;;16.64
67599;BMP280;62026;39.230;9.122;2023-04-24T01:53:34;100830.13;;;16.68
67599;BMP280;62026;39.230;9.122;2023-04-24T01:56:00;100830.38;;;16.66
67599;BMP280;62026;39.230;9.122;2023-04-24T01:58:27;100836.47;;;16.62
67599;BMP280;62026;39.230;9.122;2023-04-24T02:00:56;100833.31;;;16.65
67599;BMP280;62026;39.230;9.122;2023-04-24T02:03:22;100825.25;;;16.60
67599;BMP280;62026;39.230;9.122;2023-04-24T02:05:48;100832.78;;;16.68
67599;BMP280;62026;39.230;9.122;2023-04-24T02:08:14;100835.53;;;16.73
67599;BMP280;62026;39.230;9.122;2023-04-24T02:10:40;100832.31;;;16.71
67599;BMP280;62026;39.230;9.122;2023-04-24T02:13:06;100828.31;;;16.68
67599;BMP280;62026;39.230;9.122;2023-04-24T02:15:32;100821.03;;;16.64
67599;BMP280;62026;39.230;9.122;2023-04-24T02:17:58;100831.63;;;16.59
67599;BMP280;62026;39.230;9.122;2023-04-24T02:20:24;100836.91;;;16.54
67599;BMP280;62026;39.230;9.122;2023-04-24T02:22:50;100844.94;;;16.59
67599;BMP280;62026;39.230;9.122;2023-04-24T02:25:17;100840.69;;;16.58
67599;BMP280;62026;39.230;9.122;2023-04-24T02:27:43;100840.69;;;16.58
67599;BMP280;62026;39.230;9.122;2023-04-24T02:30:10;100829.44;;;16.56
67599;BMP280;62026;39.230;9.122;2023-04-24T02:32:36;100831.56;;;16.54
67599;BMP280;62026;39.230;9.122;2023-04-24T02:35:02;100833.44;;;16.53
67599;BMP280;62026;39.230;9.122;2023-04-24T02:37:28;100829.13;;;16.52
67599;BMP280;62026;39.230;9.122;2023-04-24T02:39:54;100832.56;;;16.47
67599;BMP280;62026;39.230;9.122;2023-04-24T02:42:20;100831.44;;;16.43
67599;BMP280;62026;39.230;9.122;2023-04-24T02:44:46;100828.19;;;16.41
67599;BMP280;62026;39.230;9.122;2023-04-24T02:47:12;100827.22;;;16.47
67599;BMP280;62026;39.230;9.122;2023-04-24T02:49:38;100830.94;;;16.46
67599;BMP280;62026;39.230;9.122;2023-04-24T02:52:04;100825.59;;;16.46
67599;BMP280;62026;39.230;9.122;2023-04-24T02:54:30;100816.50;;;16.42
67599;BMP280;62026;39.230;9.122;2023-04-24T02:56:56;100812.50;;;16.45
67599;BMP280;62026;39.230;9.122;2023-04-24T02:59:22;100815.69;;;16.42
67599;BMP280;62026;39.230;9.122;2023-04-24T03:01:48;100813.03;;;16.42
67599;BMP280;62026;39.230;9.122;2023-04-24T03:04:14;100819.16;;;16.42
67599;BMP280;62026;39.230;9.122;2023-04-24T03:06:41;100818.09;;;16.43
67599;BMP280;62026;39.230;9.122;2023-04-24T03:09:07;100813.59;;;16.44
67599;BMP280;62026;39.230;9.122;2023-04-24T03:11:33;100818.66;;;16.45
67599;BMP280;62026;39.230;9.122;2023-04-24T03:14:00;100822.88;;;16.41
67599;BMP280;62026;39.230;9.122;2023-04-24T03:16:25;100819.16;;;16.42
67599;BMP280;62026;39.230;9.122;2023-04-24T03:18:54;100817.53;;;16.41
67599;BMP280;62026;39.230;9.122;2023-04-24T03:21:22;100822.06;;;16.41
67599;BMP280;62026;39.230;9.122;2023-04-24T03:23:48;100810.59;;;16.40
67599;BMP280;62026;39.230;9.122;2023-04-24T03:26:14;100812.78;;;16.43
67599;BMP280;62026;39.230;9.122;2023-04-24T03:28:51;100805.28;;;16.40
67599;BMP280;62026;39.230;9.122;2023-04-24T03:31:17;100807.41;;;16.38
67599;BMP280;62026;39.230;9.122;2023-04-24T03:33:44;100809.56;;;16.41
67599;BMP280;62026;39.230;9.122;2023-04-24T03:36:10;100813.81;;;16.42
67599;BMP280;62026;39.230;9.122;2023-04-24T03:38:39;100808.50;;;16.42
67599;BMP280;62026;39.230;9.122;2023-04-24T03:41:27;100805.28;;;16.40
67599;BMP280;62026;39.230;9.122;2023-04-24T03:44:12;100815.41;;;16.38
67599;BMP280;62026;39.230;9.122;2023-04-24T03:46:38;100815.41;;;16.38
67599;BMP280;62026;39.230;9.122;2023-04-24T03:49:04;100817.25;;;16.38
67599;BMP280;62026;39.230;9.122;2023-04-24T03:51:34;100808.66;;;16.36
67599;BMP280;62026;39.230;9.122;2023-04-24T03:54:09;100808.38;;;16.32
67599;BMP280;62026;39.230;9.122;2023-04-24T03:56:38;100802.53;;;16.35
67599;BMP280;62026;39.230;9.122;2023-04-24T03:59:04;100807.31;;;16.33
67599;BMP280;62026;39.230;9.122;2023-04-24T04:01:30;100798.00;;;16.36
67599;BMP280;62026;39.230;9.122;2023-04-24T04:04:06;100796.75;;;16.38
67599;BMP280;62026;39.230;9.122;2023-04-24T04:06:32;100795.09;;;16.37
67599;BMP280;62026;39.230;9.122;2023-04-24T04:09:00;100800.22;;;16.39
67599;BMP280;62026;39.230;9.122;2023-04-24T04:11:26;100806.81;;;16.36
67599;BMP280;62026;39.230;9.122;2023-04-24T04:13:52;100807.41;;;16.38
67599;BMP280;62026;39.230;9.122;2023-04-24T04:16:20;100811.09;;;16.37
67599;BMP280;62026;39.230;9.122;2023-04-24T04:18:49;100808.13;;;16.34
67599;BMP280;62026;39.230;9.122;2023-04-24T04:21:15;100818.50;;;16.35
67599;BMP280;62026;39.230;9.122;2023-04-24T04:23:41;100818.22;;;16.32
67599;BMP280;62026;39.230;9.122;2023-04-24T04:26:15;100811.56;;;16.34
67599;BMP280;62026;39.230;9.122;2023-04-24T04:29:10;100824.66;;;16.36
67599;BMP280;62026;39.230;9.122;2023-04-24T04:31:40;100833.69;;;16.35
67599;BMP280;62026;39.230;9.122;2023-04-24T04:34:10;100832.88;;;16.34
67599;BMP280;62026;39.230;9.122;2023-04-24T04:36:38;100839.81;;;16.35
67599;BMP280;62026;39.230;9.122;2023-04-24T04:39:21;100844.63;;;16.33
67599;BMP280;62026;39.230;9.122;2023-04-24T04:41:58;100848.88;;;16.34
67599;BMP280;62026;39.230;9.122;2023-04-24T04:44:29;100856.31;;;16.32
67599;BMP280;62026;39.230;9.122;2023-04-24T04:46:57;100857.56;;;16.30
67599;BMP280;62026;39.230;9.122;2023-04-24T04:49:26;100857.56;;;16.30
67599;BMP280;62026;39.230;9.122;2023-04-24T04:51:55;100862.69;;;16.31
67599;BMP280;62026;39.230;9.122;2023-04-24T04:54:23;100859.53;;;16.34
67599;BMP280;62026;39.230;9.122;2023-04-24T04:56:53;100858.75;;;16.34
67599;BMP280;62026;39.230;9.122;2023-04-24T04:59:19;100861.13;;;16.35
67599;BMP280;62026;39.230;9.122;2023-04-24T05:01:46;100862.25;;;16.39
67599;BMP280;62026;39.230;9.122;2023-04-24T05:04:14;100866.31;;;16.42
67599;BMP280;62026;39.230;9.122;2023-04-24T05:06:40;100868.16;;;16.41
67599;BMP280;62026;39.230;9.122;2023-04-24T05:09:06;100866.06;;;16.43
67599;BMP280;62026;39.230;9.122;2023-04-24T05:11:59;100858.16;;;16.48
67599;BMP280;62026;39.230;9.122;2023-04-24T05:14:26;100869.34;;;16.50
67599;BMP280;62026;39.230;9.122;2023-04-24T05:16:52;100877.91;;;16.53
67599;BMP280;62026;39.230;9.122;2023-04-24T05:19:20;100876.00;;;16.48
67599;BMP280;62026;39.230;9.122;2023-04-24T05:21:46;100887.19;;;16.50
67599;BMP280;62026;39.230;9.122;2023-04-24T05:24:12;100889.84;;;16.50
67599;BMP280;62026;39.230;9.122;2023-04-24T05:26:44;100889.16;;;16.55
67599;BMP280;62026;39.230;9.122;2023-04-24T05:29:12;100894.69;;;16.70
67599;BMP280;62026;39.230;9.122;2023-04-24T05:31:37;100890.47;;;16.74
67599;BMP280;62026;39.230;9.122;2023-04-24T05:34:04;100885.28;;;16.84
67599;BMP280;62026;39.230;9.122;2023-04-24T05:36:31;100888.56;;;16.91
67599;BMP280;62026;39.230;9.122;2023-04-24T05:38:57;100897.16;;;16.98
67599;BMP280;62026;39.230;9.122;2023-04-24T05:41:23;100903.94;;;17.06
67599;BMP280;62026;39.230;9.122;2023-04-24T05:43:50;100902.22;;;17.16
67599;BMP280;62026;39.230;9.122;2023-04-24T05:46:16;100906.59;;;17.28
67599;BMP280;62026;39.230;9.122;2023-04-24T05:48:42;100902.47;;;17.42
67599;BMP280;62026;39.230;9.122;2023-04-24T05:51:09;100909.31;;;17.60
67599;BMP280;62026;39.230;9.122;2023-04-24T05:53:35;100907.84;;;17.69
67599;BMP280;62026;39.230;9.122;2023-04-24T05:56:01;100906.91;;;17.85
67599;BMP280;62026;39.230;9.122;2023-04-24T05:58:28;100897.91;;;17.96
67599;BMP280;62026;39.230;9.122;2023-04-24T06:00:54;100905.78;;;18.13
67599;BMP280;62026;39.230;9.122;2023-04-24T06:03:20;100894.41;;;18.27
67599;BMP280;62026;39.230;9.122;2023-04-24T06:05:50;100902.81;;;18.46
67599;BMP280;62026;39.230;9.122;2023-04-24T06:08:17;100901.47;;;18.49
67599;BMP280;62026;39.230;9.122;2023-04-24T06:10:44;100908.22;;;18.61
67599;BMP280;62026;39.230;9.122;2023-04-24T06:13:11;100904.84;;;18.76
67599;BMP280;62026;39.230;9.122;2023-04-24T06:15:41;100910.78;;;18.88
67599;BMP280;62026;39.230;9.122;2023-04-24T06:18:16;100918.03;;;18.93
67599;BMP280;62026;39.230;9.122;2023-04-24T06:20:42;100914.06;;;19.06
67599;BMP280;62026;39.230;9.122;2023-04-24T06:23:09;100923.97;;;19.10
67599;BMP280;62026;39.230;9.122;2023-04-24T06:25:35;100920.50;;;19.20
67599;BMP280;62026;39.230;9.122;2023-04-24T06:28:01;100919.41;;;19.11
67599;BMP280;62026;39.230;9.122;2023-04-24T06:30:29;100924.50;;;19.07
67599;BMP280;62026;39.230;9.122;2023-04-24T06:32:55;100928.28;;;19.16
67599;BMP280;62026;39.230;9.122;2023-04-24T06:35:21;100923.16;;;19.10
67599;BMP280;62026;39.230;9.122;2023-04-24T06:37:47;100929.59;;;19.14
67599;BMP280;62026;39.230;9.122;2023-04-24T06:40:14;100930.91;;;19.11
67599;BMP280;62026;39.230;9.122;2023-04-24T06:42:40;100933.34;;;19.13
67599;BMP280;62026;39.230;9.122;2023-04-24T06:45:08;100933.63;;;19.16
67599;BMP280;62026;39.230;9.122;2023-04-24T06:47:34;100939.53;;;19.23
67599;BMP280;62026;39.230;9.122;2023-04-24T06:50:00;100939.56;;;19.33
67599;BMP280;62026;39.230;9.122;2023-04-24T06:52:26;100947.13;;;19.52
67599;BMP280;62026;39.230;9.122;2023-04-24T06:54:52;100952.97;;;19.49
67599;BMP280;62026;39.230;9.122;2023-04-24T06:57:19;100947.38;;;19.55
67599;BMP280;62026;39.230;9.122;2023-04-24T06:59:45;100949.78;;;19.72
67599;BMP280;62026;39.230;9.122;2023-04-24T07:02:11;100954.38;;;19.97
67599;BMP280;62026;39.230;9.122;2023-04-24T07:04:37;100954.91;;;20.04
67599;BMP280;62026;39.230;9.122;2023-04-24T07:07:03;100953.00;;;20.09
67599;BMP280;62026;39.230;9.122;2023-04-24T07:09:30;100957.03;;;20.22
67599;BMP280;62026;39.230;9.122;2023-04-24T07:11:56;100956.72;;;20.44
67599;BMP280;62026;39.230;9.122;2023-04-24T07:14:22;100952.94;;;20.55
67599;BMP280;62026;39.230;9.122;2023-04-24T07:16:48;100952.91;;;20.60
67599;BMP280;62026;39.230;9.122;2023-04-24T07:19:15;100945.41;;;20.62
67599;BMP280;62026;39.230;9.122;2023-04-24T07:21:41;100938.31;;;20.86
67599;BMP280;62026;39.230;9.122;2023-04-24T07:24:07;100934.25;;;20.99
67599;BMP280;62026;39.230;9.122;2023-04-24T07:26:37;100937.72;;;21.05
67599;BMP280;62026;39.230;9.122;2023-04-24T07:29:04;100939.03;;;21.12
67599;BMP280;62026;39.230;9.122;2023-04-24T07:31:30;100938.91;;;21.33
67599;BMP280;62026;39.230;9.122;2023-04-24T07:33:57;100933.88;;;21.55
67599;BMP280;62026;39.230;9.122;2023-04-24T07:36:26;100937.47;;;21.45
67599;BMP280;62026;39.230;9.122;2023-04-24T07:38:54;100945.56;;;21.74
67599;BMP280;62026;39.230;9.122;2023-04-24T07:41:21;100933.72;;;21.80
67599;BMP280;62026;39.230;9.122;2023-04-24T07:43:47;100935.00;;;21.88
67599;BMP280;62026;39.230;9.122;2023-04-24T07:46:13;100944.78;;;21.74
67599;BMP280;62026;39.230;9.122;2023-04-24T07:48:39;100946.38;;;21.75
67599;BMP280;62026;39.230;9.122;2023-04-24T07:51:05;100946.75;;;21.97
67599;BMP280;62026;39.230;9.122;2023-04-24T07:53:31;100942.31;;;22.06
67599;BMP280;62026;39.230;9.122;2023-04-24T07:55:57;100956.09;;;22.28
67599;BMP280;62026;39.230;9.122;2023-04-24T07:58:23;100951.47;;;22.58
67599;BMP280;62026;39.230;9.122;2023-04-24T08:00:49;100951.50;;;22.53
67599;BMP280;62026;39.230;9.122;2023-04-24T08:03:16;100957.03;;;22.43
67599;BMP280;62026;39.230;9.122;2023-04-24T08:05:45;100957.38;;;22.36
67599;BMP280;62026;39.230;9.122;2023-04-24T08:08:11;100952.75;;;22.36
67599;BMP280;62026;39.230;9.122;2023-04-24T08:10:37;100956.78;;;22.39
67599;BMP280;62026;39.230;9.122;2023-04-24T08:13:03;100955.63;;;22.69
67599;BMP280;62026;39.230;9.122;2023-04-24T08:15:29;100966.78;;;23.00
67599;BMP280;62026;39.230;9.122;2023-04-24T08:17:57;100959.75;;;23.04
67599;BMP280;62026;39.230;9.122;2023-04-24T08:20:23;100959.44;;;23.05
67599;BMP280;62026;39.230;9.122;2023-04-24T08:22:49;100956.25;;;23.03
67599;BMP280;62026;39.230;9.122;2023-04-24T08:25:15;100952.31;;;23.14
67599;BMP280;62026;39.230;9.122;2023-04-24T08:27:41;100951.06;;;23.07
67599;BMP280;62026;39.230;9.122;2023-04-24T08:30:08;100953.75;;;23.44
67599;BMP280;62026;39.230;9.122;2023-04-24T08:32:35;100954.56;;;23.07
67599;BMP280;62026;39.230;9.122;2023-04-24T08:35:02;100951.94;;;23.40
67599;BMP280;62026;39.230;9.122;2023-04-24T08:37:28;100956.72;;;23.43
67599;BMP280;62026;39.230;9.122;2023-04-24T08:39:54;100947.38;;;23.22
67599;BMP280;62026;39.230;9.122;2023-04-24T08:42:21;100946.56;;;23.21
67599;BMP280;62026;39.230;9.122;2023-04-24T08:44:49;100951.88;;;23.45
67599;BMP280;62026;39.230;9.122;2023-04-24T08:47:16;100965.53;;;23.67
67599;BMP280;62026;39.230;9.122;2023-04-24T08:49:43;100950.97;;;23.82
67599;BMP280;62026;39.230;9.122;2023-04-24T08:52:12;100947.97;;;23.83
67599;BMP280;62026;39.230;9.122;2023-04-24T08:54:40;100947.78;;;23.93
67599;BMP280;62026;39.230;9.122;2023-04-24T08:57:09;100951.16;;;23.85
67599;BMP280;62026;39.230;9.122;2023-04-24T08:59:38;100953.56;;;23.54
67599;BMP280;62026;39.230;9.122;2023-04-24T09:02:05;100953.13;;;23.66
67599;BMP280;62026;39.230;9.122;2023-04-24T09:04:33;100947.81;;;24.07
67599;BMP280;62026;39.230;9.122;2023-04-24T09:07:00;100943.63;;;24.28
67599;BMP280;62026;39.230;9.122;2023-04-24T09:09:30;100944.72;;;24.41
67599;BMP280;62026;39.230;9.122;2023-04-24T09:11:58;100941.03;;;24.10
67599;BMP280;62026;39.230;9.122;2023-04-24T09:14:24;100940.00;;;23.92
67599;BMP280;62026;39.230;9.122;2023-04-24T09:16:50;100939.44;;;24.09
67599;BMP280;62026;39.230;9.122;2023-04-24T09:19:17;100934.19;;;24.53
67599;BMP280;62026;39.230;9.122;2023-04-24T09:21:46;100928.13;;;24.48
67599;BMP280;62026;39.230;9.122;2023-04-24T09:24:18;100929.34;;;23.68
67599;BMP280;62026;39.230;9.122;2023-04-24T09:26:46;100931.22;;;24.00
67599;BMP280;62026;39.230;9.122;2023-04-24T09:29:16;100933.00;;;24.05
67599;BMP280;62026;39.230;9.122;2023-04-24T09:31:43;100916.00;;;24.45
67599;BMP280;62026;39.230;9.122;2023-04-24T09:34:09;100929.34;;;24.28
67599;BMP280;62026;39.230;9.122;2023-04-24T09:36:41;100917.31;;;24.48
67599;BMP280;62026;39.230;9.122;2023-04-24T09:39:11;100918.63;;;24.23
67599;BMP280;62026;39.230;9.122;2023-04-24T09:41:52;100927.03;;;24.35
67599;BMP280;62026;39.230;9.122;2023-04-24T09:44:24;100938.84;;;24.39
67599;BMP280;62026;39.230;9.122;2023-04-24T09:46:52;100924.00;;;24.36
67599;BMP280;62026;39.230;9.122;2023-04-24T09:49:30;100941.31;;;24.35
67599;BMP280;62026;39.230;9.122;2023-04-24T09:52:08;100942.81;;;24.28
67599;BMP280;62026;39.230;9.122;2023-04-24T09:54:34;100945.31;;;24.38
67599;BMP280;62026;39.230;9.122;2023-04-24T09:57:02;100941.00;;;24.51
67599;BMP280;62026;39.230;9.122;2023-04-24T09:59:29;100941.91;;;24.96
67599;BMP280;62026;39.230;9.122;2023-04-24T10:01:56;100927.28;;;24.74
67599;BMP280;62026;39.230;9.122;2023-04-24T10:04:28;100947.81;;;24.48
67599;BMP280;62026;39.230;9.122;2023-04-24T10:06:57;100941.22;;;24.27
67599;BMP280;62026;39.230;9.122;2023-04-24T10:09:25;100936.69;;;24.36
67599;BMP280;62026;39.230;9.122;2023-04-24T10:11:54;100940.41;;;24.13
67599;BMP280;62026;39.230;9.122;2023-04-24T10:14:24;100932.03;;;24.28
67599;BMP280;62026;39.230;9.122;2023-04-24T10:16:55;100932.81;;;24.15
67599;BMP280;62026;39.230;9.122;2023-04-24T10:19:26;100943.91;;;24.13
67599;BMP280;62026;39.230;9.122;2023-04-24T10:21:52;100939.72;;;24.21
67599;BMP280;62026;39.230;9.122;2023-04-24T10:24:20;100935.09;;;24.08
67599;BMP280;62026;39.230;9.122;2023-04-24T10:26:47;100939.81;;;24.29
67599;BMP280;62026;39.230;9.122;2023-04-24T10:29:18;100929.63;;;24.26
67599;BMP280;62026;39.230;9.122;2023-04-24T10:31:45;100921.81;;;23.98
67599;BMP280;62026;39.230;9.122;2023-04-24T10:34:14;100931.03;;;23.97
67599;BMP280;62026;39.230;9.122;2023-04-24T10:36:48;100928.03;;;24.12
67599;BMP280;62026;39.230;9.122;2023-04-24T10:39:17;100928.53;;;24.14
67599;BMP280;62026;39.230;9.122;2023-04-24T10:41:44;100934.03;;;23.95
67599;BMP280;62026;39.230;9.122;2023-04-24T10:44:14;100926.59;;;23.87
67599;BMP280;62026;39.230;9.122;2023-04-24T10:46:45;100927.06;;;23.75
67599;BMP280;62026;39.230;9.122;2023-04-24T10:49:11;100928.38;;;23.78
67599;BMP280;62026;39.230;9.122;2023-04-24T10:51:54;100919.06;;;23.70
67599;BMP280;62026;39.230;9.122;2023-04-24T10:54:33;100912.56;;;23.58
67599;BMP280;62026;39.230;9.122;2023-04-24T10:59:46;100923.00;;;23.64
67599;BMP280;62026;39.230;9.122;2023-04-24T11:02:17;100906.03;;;23.45
67599;BMP280;62026;39.230;9.122;2023-04-24T11:04:44;100909.88;;;23.39
67599;BMP280;62026;39.230;9.122;2023-04-24T11:07:13;100914.28;;;23.35
67599;BMP280;62026;39.230;9.122;2023-04-24T11:09:41;100910.69;;;23.39
67599;BMP280;62026;39.230;9.122;2023-04-24T11:12:11;100902.94;;;23.38
67599;BMP280;62026;39.230;9.122;2023-04-24T11:15:00;100892.66;;;23.40
67599;BMP280;62026;39.230;9.122;2023-04-24T11:17:38;100906.91;;;23.27
67599;BMP280;62026;39.230;9.122;2023-04-24T11:20:08;100906.38;;;23.25
67599;BMP280;62026;39.230;9.122;2023-04-24T11:22:39;100897.41;;;23.29
67599;BMP280;62026;39.230;9.122;2023-04-24T11:25:09;100887.00;;;23.23
67599;BMP280;62026;39.230;9.122;2023-04-24T11:27:44;100894.66;;;23.15
67599;BMP280;62026;39.230;9.122;2023-04-24T11:30:12;100893.91;;;23.29
67599;BMP280;62026;39.230;9.122;2023-04-24T11:32:43;100894.75;;;23.10
67599;BMP280;62026;39.230;9.122;2023-04-24T11:35:14;100891.03;;;23.06
67599;BMP280;62026;39.230;9.122;2023-04-24T11:37:47;100889.06;;;23.12
67599;BMP280;62026;39.230;9.122;2023-04-24T11:40:19;100888.28;;;23.11
67599;BMP280;62026;39.230;9.122;2023-04-24T11:42:52;100884.84;;;23.06
67599;BMP280;62026;39.230;9.122;2023-04-24T11:45:23;100889.78;;;22.99
67599;BMP280;62026;39.230;9.122;2023-04-24T11:47:50;100876.38;;;22.94
67599;BMP280;62026;39.230;9.122;2023-04-24T11:50:19;100880.41;;;22.96
67599;BMP280;62026;39.230;9.122;2023-04-24T11:52:50;100879.00;;;22.99
67599;BMP280;62026;39.230;9.122;2023-04-24T11:57:47;100885.81;;;22.96
67599;BMP280;62026;39.230;9.122;2023-04-24T12:00:18;100885.19;;;22.99
67599;BMP280;62026;39.230;9.122;2023-04-24T12:02:45;100877.22;;;22.94
67599;BMP280;62026;39.230;9.122;2023-04-24T12:07:46;100876.53;;;22.84
67599;BMP280;62026;39.230;9.122;2023-04-24T12:10:12;100867.97;;;22.82
67599;BMP280;62026;39.230;9.122;2023-04-24T12:12:38;100872.56;;;22.81
67599;BMP280;62026;39.230;9.122;2023-04-24T12:15:09;100863.88;;;22.84
67599;BMP280;62026;39.230;9.122;2023-04-24T12:17:35;100871.53;;;22.77
67599;BMP280;62026;39.230;9.122;2023-04-24T12:20:07;100868.84;;;22.77
67599;BMP280;62026;39.230;9.122;2023-04-24T12:22:51;100864.84;;;22.74
67599;BMP280;62026;39.230;9.122;2023-04-24T12:25:21;100870.72;;;22.76
67599;BMP280;62026;39.230;9.122;2023-04-24T12:30:26;100862.59;;;22.82
67599;BMP280;62026;39.230;9.122;2023-04-24T12:32:54;100865.84;;;22.78
67599;BMP280;62026;39.230;9.122;2023-04-24T12:35:23;100865.63;;;22.75
67599;BMP280;62026;39.230;9.122;2023-04-24T12:37:49;100875.31;;;22.76
67599;BMP280;62026;39.230;9.122;2023-04-24T12:40:18;100859.75;;;22.73
67599;BMP280;62026;39.230;9.122;2023-04-24T12:42:49;100859.75;;;22.73
67599;BMP280;62026;39.230;9.122;2023-04-24T12:45:17;100859.22;;;22.71
67599;BMP280;62026;39.230;9.122;2023-04-24T12:47:45;100846.59;;;22.71
67599;BMP280;62026;39.230;9.122;2023-04-24T12:50:15;100842.38;;;22.65
67599;BMP280;62026;39.230;9.122;2023-04-24T12:52:42;100844.78;;;22.67
67599;BMP280;62026;39.230;9.122;2023-04-24T12:55:09;100848.47;;;22.71
67599;BMP280;62026;39.230;9.122;2023-04-24T12:57:39;100852.75;;;22.72
67599;BMP280;62026;39.230;9.122;2023-04-24T13:00:07;100845.13;;;22.79
67599;BMP280;62026;39.230;9.122;2023-04-24T13:02:34;100854.09;;;22.74
67599;BMP280;62026;39.230;9.122;2023-04-24T13:05:01;100845.78;;;22.71
67599;BMP280;62026;39.230;9.122;2023-04-24T13:07:28;100847.81;;;22.79
67599;BMP280;62026;39.230;9.122;2023-04-24T13:09:56;100851.06;;;22.76
67599;BMP280;62026;39.230;9.122;2023-04-24T13:12:23;100840.63;;;22.74
67599;BMP280;62026;39.230;9.122;2023-04-24T13:14:49;100843.31;;;22.74
67599;BMP280;62026;39.230;9.122;2023-04-24T13:17:15;100835.53;;;22.73
67599;BMP280;62026;39.230;9.122;2023-04-24T13:19:44;100815.50;;;22.79
67599;BMP280;62026;39.230;9.122;2023-04-24T13:22:12;100832.84;;;22.73
67599;BMP280;62026;39.230;9.122;2023-04-24T13:24:39;100826.47;;;22.83
67599;BMP280;62026;39.230;9.122;2023-04-24T13:27:07;100825.19;;;22.80
67599;BMP280;62026;39.230;9.122;2023-04-24T13:29:33;100827.66;;;22.76
67599;BMP280;62026;39.230;9.122;2023-04-24T13:31:59;100832.75;;;22.78
67599;BMP280;62026;39.230;9.122;2023-04-24T13:34:26;100820.09;;;22.78
67599;BMP280;62026;39.230;9.122;2023-04-24T13:36:55;100826.84;;;22.76
67599;BMP280;62026;39.230;9.122;2023-04-24T13:39:22;100816.97;;;22.71
67599;BMP280;62026;39.230;9.122;2023-04-24T13:41:48;100818.16;;;22.65
67599;BMP280;62026;39.230;9.122;2023-04-24T13:44:17;100801.72;;;22.67
67599;BMP280;62026;39.230;9.122;2023-04-24T13:46:45;100806.13;;;22.76
67599;BMP280;62026;39.230;9.122;2023-04-24T13:49:15;100812.09;;;22.73
67599;BMP280;62026;39.230;9.122;2023-04-24T13:51:42;100807.88;;;22.67
67599;BMP280;62026;39.230;9.122;2023-04-24T13:54:09;100821.63;;;22.66
67599;BMP280;62026;39.230;9.122;2023-04-24T13:56:35;100807.09;;;22.67
67599;BMP280;62026;39.230;9.122;2023-04-24T13:59:01;100809.31;;;22.60
67599;BMP280;62026;39.230;9.122;2023-04-24T14:01:28;100795.97;;;22.73
67599;BMP280;62026;39.230;9.122;2023-04-24T14:03:55;100801.72;;;22.67
67599;BMP280;62026;39.230;9.122;2023-04-24T14:06:22;100797.47;;;22.61
67599;BMP280;62026;39.230;9.122;2023-04-24T14:08:49;100801.47;;;22.63
67599;BMP280;62026;39.230;9.122;2023-04-24T14:11:16;100800.16;;;22.61